Time;durP1;ratioP1;P1;durP2;ratioP2;P2;SDS_P1;SDS_P2;PMS_P1;PMS_P2;Temp;Humidity;BMP_temperature;BMP_pressure;BME280_temperature;BME280_humidity;BME280_pressure;Samples;Min_cycle;Max_cycle;Signal;HPM_P1;HPM_P2
2023/08/07 00:00:32;;;;;;;6.20;3.00;;;14.10;99.90;;;;;;5073128;28;20087;-83
2023/08/07 00:02:57;;;;;;;6.15;2.95;;;14.10;99.90;;;;;;5056017;28;20205;-83
2023/08/07 00:05:23;;;;;;;6.10;3.50;;;14.10;99.90;;;;;;5056434;28;20044;-83
2023/08/07 00:07:49;;;;;;;7.00;3.17;;;14.10;99.90;;;;;;5055779;28;20131;-83
2023/08/07 00:10:15;;;;;;;6.38;3.08;;;14.10;99.90;;;;;;5072808;28;20097;-83
2023/08/07 00:12:40;;;;;;;5.25;3.22;;;14.10;99.90;;;;;;5055875;28;20443;-83
2023/08/07 00:15:06;;;;;;;4.57;3.30;;;14.10;99.90;;;;;;5056295;28;20053;-82
2023/08/07 00:17:32;;;;;;;4.82;3.33;;;14.10;99.90;;;;;;5072884;28;20098;-82
2023/08/07 00:19:58;;;;;;;6.50;3.90;;;14.10;99.90;;;;;;5063450;28;20084;-83
2023/08/07 00:22:25;;;;;;;6.95;3.80;;;14.10;99.90;;;;;;5056326;28;20094;-82
2023/08/07 00:24:50;;;;;;;5.22;3.75;;;14.10;99.90;;;;;;5073024;28;20047;-82
2023/08/07 00:27:16;;;;;;;6.70;3.90;;;14.20;99.90;;;;;;5073229;28;20049;-81
2023/08/07 00:29:42;;;;;;;7.80;4.00;;;14.20;99.90;;;;;;5055814;28;20047;-81
2023/08/07 00:32:08;;;;;;;5.47;3.67;;;14.20;99.90;;;;;;5071620;28;20052;-80
2023/08/07 00:34:34;;;;;;;6.78;4.15;;;14.30;99.90;;;;;;5073572;28;20039;-83
2023/08/07 00:37:00;;;;;;;6.82;3.60;;;14.30;99.90;;;;;;5072048;28;20045;-82
2023/08/07 00:39:25;;;;;;;7.45;3.97;;;14.30;99.90;;;;;;5055446;28;20496;-83
2023/08/07 00:41:51;;;;;;;6.05;3.70;;;14.30;99.90;;;;;;5073169;28;20093;-82
2023/08/07 00:44:17;;;;;;;5.97;3.60;;;14.30;99.90;;;;;;5055184;28;20405;-82
2023/08/07 00:46:43;;;;;;;5.80;3.22;;;14.40;99.90;;;;;;5055307;28;20047;-83
2023/08/07 00:49:11;;;;;;;5.88;3.38;;;14.30;99.90;;;;;;5055517;28;20044;-82
2023/08/07 00:51:38;;;;;;;6.88;3.10;;;14.40;99.90;;;;;;5072118;28;20134;-83
2023/08/07 00:54:05;;;;;;;6.53;3.55;;;14.40;99.90;;;;;;5072806;28;20040;-82
2023/08/07 00:56:31;;;;;;;5.10;3.15;;;14.40;99.90;;;;;;5055471;28;20045;-82
2023/08/07 00:59:01;;;;;;;6.97;3.28;;;14.40;99.90;;;;;;5072246;28;20381;-83
2023/08/07 01:01:27;;;;;;;4.53;3.25;;;14.40;99.90;;;;;;5053719;28;20040;-83
2023/08/07 01:03:53;;;;;;;5.07;3.25;;;14.40;99.90;;;;;;5055621;28;20047;-82
2023/08/07 01:06:18;;;;;;;4.65;3.15;;;14.40;99.90;;;;;;5071772;28;20042;-81
2023/08/07 01:08:46;;;;;;;4.97;3.40;;;14.40;99.90;;;;;;5035572;28;20040;-82
2023/08/07 01:11:30;;;;;;;5.35;3.30;;;14.40;99.90;;;;;;5070934;28;20090;-83
2023/08/07 01:14:08;;;;;;;6.68;3.58;;;14.40;99.90;;;;;;5072324;28;20113;-83
2023/08/07 01:16:36;;;;;;;8.82;3.40;;;14.40;99.90;;;;;;5075448;28;20128;-83
2023/08/07 01:19:04;;;;;;;6.03;3.50;;;14.40;99.90;;;;;;5067919;28;20569;-83
2023/08/07 01:21:32;;;;;;;5.65;3.28;;;14.40;99.90;;;;;;5071694;28;20052;-81
2023/08/07 01:23:58;;;;;;;4.20;2.58;;;14.40;99.90;;;;;;5071960;28;20043;-82
2023/08/07 01:26:23;;;;;;;4.30;2.90;;;14.40;99.90;;;;;;5038859;28;20127;-84
2023/08/07 01:29:11;;;;;;;4.18;2.92;;;14.40;99.90;;;;;;5055517;28;20060;-82
2023/08/07 01:31:40;;;;;;;5.78;2.88;;;14.40;99.90;;;;;;5065788;28;20040;-83
2023/08/07 01:34:08;;;;;;;5.82;3.00;;;14.30;99.90;;;;;;5071475;28;20124;-83
2023/08/07 01:36:34;;;;;;;6.50;3.10;;;14.30;99.90;;;;;;5071684;28;20089;-82
2023/08/07 01:39:03;;;;;;;4.90;2.92;;;14.30;99.90;;;;;;5071620;28;20481;-82
2023/08/07 01:41:29;;;;;;;6.20;2.88;;;14.30;99.90;;;;;;5071663;28;20048;-82
2023/08/07 01:43:55;;;;;;;5.20;2.85;;;14.20;99.90;;;;;;5054603;28;20127;-82
2023/08/07 01:46:21;;;;;;;5.72;2.63;;;14.20;99.90;;;;;;5071693;28;20174;-82
2023/08/07 01:48:47;;;;;;;4.95;2.60;;;14.20;99.90;;;;;;5071344;28;20041;-83
2023/08/07 01:51:12;;;;;;;4.50;2.40;;;14.10;99.90;;;;;;5071313;28;20040;-83
2023/08/07 01:53:38;;;;;;;4.20;2.47;;;14.10;99.90;;;;;;5054914;28;20041;-82
2023/08/07 01:56:04;;;;;;;4.65;2.47;;;14.10;99.90;;;;;;5071283;28;20045;-82
2023/08/07 01:58:29;;;;;;;4.47;2.42;;;14.10;99.90;;;;;;5085612;28;20045;-82
2023/08/07 02:00:55;;;;;;;5.15;2.20;;;14.10;99.90;;;;;;5073711;28;20067;-83
2023/08/07 02:03:21;;;;;;;5.07;2.30;;;14.20;99.90;;;;;;5071153;28;20097;-82
2023/08/07 02:05:47;;;;;;;7.00;2.60;;;14.20;99.90;;;;;;5054599;28;20040;-82
2023/08/07 02:08:12;;;;;;;4.53;2.40;;;14.20;99.90;;;;;;5071649;28;20041;-82
2023/08/07 02:10:38;;;;;;;4.00;2.42;;;14.20;99.90;;;;;;5071499;28;20067;-82
2023/08/07 02:13:04;;;;;;;4.97;2.63;;;14.20;99.90;;;;;;5054730;28;20489;-83
2023/08/07 02:15:29;;;;;;;3.90;2.20;;;14.20;99.90;;;;;;5071302;28;20053;-83
2023/08/07 02:17:55;;;;;;;3.67;2.20;;;14.10;99.90;;;;;;5054691;28;20051;-83
2023/08/07 02:20:21;;;;;;;3.88;2.20;;;14.20;99.90;;;;;;5071244;28;20048;-82
2023/08/07 02:22:47;;;;;;;7.10;2.25;;;14.20;99.90;;;;;;5038297;28;20109;-82
2023/08/07 02:25:12;;;;;;;3.85;2.40;;;14.20;99.90;;;;;;5071369;28;20045;-81
2023/08/07 02:27:38;;;;;;;4.25;2.15;;;14.20;99.90;;;;;;5034631;28;20565;-82
2023/08/07 02:30:05;;;;;;;4.60;2.25;;;14.20;99.90;;;;;;5038120;28;20056;-82
2023/08/07 02:32:31;;;;;;;4.82;1.88;;;14.20;99.90;;;;;;5070661;28;20174;-82
2023/08/07 02:34:56;;;;;;;7.10;2.53;;;14.20;99.90;;;;;;5054221;28;20160;-83
2023/08/07 02:37:22;;;;;;;5.90;2.30;;;14.20;99.90;;;;;;5071234;28;20033;-82
2023/08/07 02:39:48;;;;;;;4.70;2.10;;;14.20;99.90;;;;;;5071356;28;20439;-81
2023/08/07 02:42:13;;;;;;;3.15;1.63;;;14.20;99.90;;;;;;5054402;28;20051;-82
2023/08/07 02:44:39;;;;;;;4.68;1.75;;;14.20;99.90;;;;;;5071168;28;20056;-82
2023/08/07 02:47:05;;;;;;;3.33;1.73;;;14.20;99.90;;;;;;5071048;28;20056;-82
2023/08/07 02:49:31;;;;;;;5.13;1.80;;;14.10;99.90;;;;;;5071850;28;20044;-81
2023/08/07 02:51:57;;;;;;;7.78;2.13;;;14.10;99.90;;;;;;5071333;28;20488;-81
2023/08/07 02:54:22;;;;;;;4.53;1.77;;;14.10;99.90;;;;;;5070552;28;20057;-82
2023/08/07 02:56:48;;;;;;;6.20;1.98;;;14.10;99.90;;;;;;5071003;28;20051;-84
2023/08/07 02:59:15;;;;;;;5.55;1.80;;;14.10;99.90;;;;;;5054673;28;20075;-82
2023/08/07 03:01:41;;;;;;;3.03;1.77;;;14.10;99.90;;;;;;5071870;28;20121;-82
2023/08/07 03:04:06;;;;;;;5.32;1.80;;;14.10;99.90;;;;;;5053826;28;20508;-82
2023/08/07 03:06:32;;;;;;;8.38;1.80;;;14.10;99.90;;;;;;5071478;28;20362;-82
2023/08/07 03:08:57;;;;;;;11.20;1.90;;;14.00;99.90;;;;;;5058163;28;20041;-82
2023/08/07 03:11:23;;;;;;;5.43;1.50;;;14.00;99.90;;;;;;5075685;28;20053;-81
2023/08/07 03:13:49;;;;;;;4.28;1.98;;;14.00;99.90;;;;;;5074361;28;20056;-82
2023/08/07 03:16:15;;;;;;;7.82;2.15;;;14.00;99.90;;;;;;5074226;28;20071;-82
2023/08/07 03:18:41;;;;;;;4.50;1.40;;;14.00;99.90;;;;;;5074198;28;20090;-82
2023/08/07 03:21:07;;;;;;;5.20;1.52;;;14.00;99.90;;;;;;5075146;28;20040;-81
2023/08/07 03:23:32;;;;;;;4.68;1.65;;;13.90;99.90;;;;;;5054056;28;20510;-81
2023/08/07 03:26:09;;;;;;;5.35;1.60;;;13.90;99.90;;;;;;5054843;28;20044;-82
2023/08/07 03:28:35;;;;;;;5.35;1.73;;;13.90;99.90;;;;;;5062808;28;20040;-82
2023/08/07 03:31:02;;;;;;;5.32;1.85;;;13.90;99.90;;;;;;5057491;28;20052;-82
2023/08/07 03:33:28;;;;;;;4.10;1.75;;;13.90;99.90;;;;;;5073837;28;20037;-82
2023/08/07 03:35:54;;;;;;;7.18;1.92;;;13.90;99.90;;;;;;5055413;28;20040;-82
2023/08/07 03:38:19;;;;;;;5.85;1.85;;;13.90;99.90;;;;;;5055486;28;20087;-81
2023/08/07 03:40:45;;;;;;;5.45;1.90;;;13.80;99.90;;;;;;5055666;28;20080;-81
2023/08/07 03:43:11;;;;;;;3.13;1.70;;;13.80;99.90;;;;;;5071747;28;20412;-82
2023/08/07 03:45:37;;;;;;;6.00;1.40;;;13.80;99.90;;;;;;5073902;28;20037;-83
2023/08/07 03:48:02;;;;;;;4.78;1.42;;;13.80;99.90;;;;;;5057068;28;20048;-82
2023/08/07 03:50:30;;;;;;;8.68;1.60;;;13.70;99.90;;;;;;5073769;28;20056;-82
2023/08/07 03:52:56;;;;;;;6.20;1.83;;;13.70;99.90;;;;;;5057486;28;20067;-82
2023/08/07 03:55:21;;;;;;;3.67;1.55;;;13.70;99.90;;;;;;5073664;28;20047;-82
2023/08/07 03:57:47;;;;;;;6.38;1.77;;;13.70;99.90;;;;;;5056709;28;20100;-82
2023/08/07 04:00:13;;;;;;;5.32;1.70;;;13.70;99.90;;;;;;5057203;28;20039;-81
2023/08/07 04:02:39;;;;;;;4.95;1.65;;;13.70;99.90;;;;;;5056318;28;20393;-81
2023/08/07 04:05:05;;;;;;;6.75;2.22;;;13.70;99.90;;;;;;5056994;28;20632;-83
2023/08/07 04:07:31;;;;;;;6.68;1.75;;;13.70;99.90;;;;;;5073644;28;20040;-82
2023/08/07 04:09:57;;;;;;;5.40;1.70;;;13.70;99.90;;;;;;5073381;28;20473;-82
2023/08/07 04:12:22;;;;;;;5.00;2.00;;;13.60;99.90;;;;;;5073240;28;20056;-82
2023/08/07 04:14:48;;;;;;;8.20;1.80;;;13.60;99.90;;;;;;5072420;28;20054;-82
2023/08/07 04:17:14;;;;;;;5.80;1.50;;;13.60;99.90;;;;;;5072578;28;20497;-82
2023/08/07 04:19:39;;;;;;;8.25;2.00;;;13.60;99.90;;;;;;5055250;28;20130;-82
2023/08/07 04:22:05;;;;;;;5.47;1.77;;;13.60;99.90;;;;;;5072820;28;20074;-82
2023/08/07 04:24:31;;;;;;;5.25;1.67;;;13.60;99.90;;;;;;5056155;28;20443;-82
2023/08/07 04:26:56;;;;;;;3.78;1.50;;;13.60;99.90;;;;;;5072724;28;20569;-82
2023/08/07 04:29:24;;;;;;;6.47;1.45;;;13.60;99.90;;;;;;5072807;28;20070;-82
2023/08/07 04:31:49;;;;;;;5.00;2.03;;;13.60;99.90;;;;;;5073624;28;20060;-81
2023/08/07 04:34:15;;;;;;;4.65;1.85;;;13.60;99.90;;;;;;5073893;28;20044;-82
2023/08/07 04:36:40;;;;;;;3.47;1.50;;;13.70;99.90;;;;;;5073713;28;20051;-82
2023/08/07 04:39:07;;;;;;;4.05;1.90;;;13.70;99.90;;;;;;5072881;28;20400;-82
2023/08/07 04:41:32;;;;;;;3.58;1.70;;;13.70;99.90;;;;;;5056513;28;20123;-82
2023/08/07 04:43:58;;;;;;;6.40;1.60;;;13.80;99.90;;;;;;5055498;28;20496;-82
2023/08/07 04:46:24;;;;;;;5.20;1.73;;;13.80;99.90;;;;;;5072644;28;20106;-83
2023/08/07 04:48:50;;;;;;;5.78;1.90;;;13.90;99.90;;;;;;5022606;28;20102;-81
2023/08/07 04:51:15;;;;;;;9.43;1.95;;;13.90;99.90;;;;;;5072188;28;20094;-79
2023/08/07 04:53:41;;;;;;;6.60;1.70;;;14.00;99.90;;;;;;5056126;28;20474;-79
2023/08/07 04:56:07;;;;;;;3.63;1.50;;;14.00;99.90;;;;;;5072308;28;20041;-79
2023/08/07 04:58:33;;;;;;;3.97;1.60;;;14.00;99.90;;;;;;5072310;28;20288;-82
2023/08/07 05:00:59;;;;;;;3.78;1.33;;;14.00;99.90;;;;;;5072272;28;20040;-79
2023/08/07 05:03:26;;;;;;;4.43;1.58;;;14.00;99.90;;;;;;5071559;28;20044;-80
2023/08/07 05:05:58;;;;;;;4.15;1.55;;;14.00;99.90;;;;;;5055834;28;20124;-78
2023/08/07 05:08:24;;;;;;;4.10;1.40;;;14.00;99.90;;;;;;5072939;28;20045;-80
2023/08/07 05:10:49;;;;;;;7.03;1.77;;;14.00;99.90;;;;;;5056268;28;20447;-79
2023/08/07 05:13:15;;;;;;;2.55;1.30;;;14.00;99.90;;;;;;5052178;28;20048;-81
2023/08/07 05:15:41;;;;;;;4.53;1.30;;;14.10;99.90;;;;;;5057098;28;20045;-80
2023/08/07 05:18:07;;;;;;;5.88;1.60;;;14.00;99.90;;;;;;5051560;28;20094;-81
2023/08/07 05:20:32;;;;;;;8.02;1.83;;;14.10;99.90;;;;;;5051850;28;20055;-81
2023/08/07 05:22:58;;;;;;;6.88;1.70;;;14.00;99.90;;;;;;5063651;28;20442;-80
2023/08/07 05:25:24;;;;;;;4.43;1.60;;;14.00;99.90;;;;;;5072053;28;20056;-78
2023/08/07 05:27:49;;;;;;;5.05;1.42;;;14.00;99.90;;;;;;5073324;28;20051;-80
2023/08/07 05:30:15;;;;;;;3.60;1.38;;;14.00;99.90;;;;;;5071506;28;20389;-80
2023/08/07 05:32:41;;;;;;;5.10;2.10;;;14.00;99.90;;;;;;5072370;28;20048;-71
2023/08/07 05:35:08;;;;;;;6.00;1.80;;;14.10;99.90;;;;;;5072700;28;20041;-72
2023/08/07 05:37:34;;;;;;;6.07;1.98;;;14.10;99.90;;;;;;5072595;28;20137;-72
2023/08/07 05:40:00;;;;;;;5.82;1.83;;;14.20;99.90;;;;;;5071541;28;20501;-71
2023/08/07 05:42:25;;;;;;;6.90;1.90;;;14.30;99.90;;;;;;5072525;28;20054;-71
2023/08/07 05:44:51;;;;;;;7.45;1.92;;;14.40;99.90;;;;;;5072417;28;20178;-71
2023/08/07 05:47:17;;;;;;;4.43;1.77;;;14.50;99.90;;;;;;5072571;28;20044;-70
2023/08/07 05:49:42;;;;;;;6.65;2.05;;;14.50;99.90;;;;;;5072753;28;20099;-70
2023/08/07 05:52:08;;;;;;;3.40;1.35;;;14.40;99.90;;;;;;5071315;28;20127;-70
2023/08/07 05:54:34;;;;;;;5.13;1.65;;;14.40;99.90;;;;;;5071914;28;20036;-72
2023/08/07 05:57:00;;;;;;;5.13;1.50;;;14.40;99.90;;;;;;5062851;28;20051;-71
2023/08/07 05:59:26;;;;;;;3.75;1.58;;;14.30;99.90;;;;;;5063620;28;20052;-70
2023/08/07 06:01:53;;;;;;;4.60;1.90;;;14.30;99.90;;;;;;5068323;28;20090;-72
2023/08/07 06:04:18;;;;;;;6.50;2.55;;;14.30;99.90;;;;;;5070528;28;20064;-70
2023/08/07 06:06:45;;;;;;;4.07;1.70;;;14.30;99.90;;;;;;5071247;28;20075;-70
2023/08/07 06:09:11;;;;;;;5.93;2.03;;;14.30;99.90;;;;;;5072515;28;20120;-70
2023/08/07 06:11:37;;;;;;;7.65;2.05;;;14.30;99.90;;;;;;5072677;28;20127;-71
2023/08/07 06:14:02;;;;;;;6.35;2.08;;;14.40;99.90;;;;;;5070950;28;20094;-70
2023/08/07 06:16:28;;;;;;;5.20;2.00;;;14.40;99.90;;;;;;5072015;28;20072;-70
2023/08/07 06:18:54;;;;;;;5.25;2.00;;;14.40;99.90;;;;;;5052317;28;20045;-70
2023/08/07 06:21:20;;;;;;;4.15;1.73;;;14.40;99.90;;;;;;5071618;28;20109;-70
2023/08/07 06:23:46;;;;;;;5.65;1.90;;;14.40;99.90;;;;;;5072493;28;20395;-70
2023/08/07 06:26:12;;;;;;;4.72;1.83;;;14.50;99.90;;;;;;5071556;28;20400;-71
2023/08/07 06:28:38;;;;;;;7.93;2.58;;;14.60;99.90;;;;;;5071343;28;20083;-71
2023/08/07 06:31:09;;;;;;;7.22;2.03;;;14.60;99.90;;;;;;5064583;28;20095;-74
2023/08/07 06:33:36;;;;;;;7.97;2.97;;;14.70;99.90;;;;;;5068202;28;20194;-71
2023/08/07 06:36:03;;;;;;;7.28;2.08;;;14.70;99.90;;;;;;5070431;28;20079;-71
2023/08/07 06:38:29;;;;;;;6.18;2.00;;;14.80;99.90;;;;;;5067430;28;20438;-72
2023/08/07 06:40:55;;;;;;;6.80;2.17;;;14.90;99.90;;;;;;5052520;28;20056;-73
2023/08/07 06:43:21;;;;;;;5.22;2.05;;;15.00;99.90;;;;;;5071062;28;20397;-72
2023/08/07 06:45:50;;;;;;;6.35;1.90;;;15.10;99.90;;;;;;5074475;28;20039;-72
2023/08/07 06:48:16;;;;;;;6.88;2.17;;;15.20;99.90;;;;;;5073672;28;20385;-71
2023/08/07 06:50:42;;;;;;;4.82;1.83;;;15.20;99.90;;;;;;5074401;28;20048;-71
2023/08/07 06:53:07;;;;;;;5.18;1.60;;;15.10;99.90;;;;;;5074149;28;20119;-71
2023/08/07 06:55:33;;;;;;;5.32;2.40;;;15.10;99.90;;;;;;5074500;28;20037;-71
2023/08/07 06:57:59;;;;;;;6.60;1.95;;;15.10;99.90;;;;;;5074742;28;20053;-72
2023/08/07 07:00:25;;;;;;;6.70;2.03;;;15.20;99.90;;;;;;5074073;28;20044;-71
2023/08/07 07:02:51;;;;;;;6.70;2.03;;;15.20;99.90;;;;;;5073601;28;20447;-71
2023/08/07 07:05:17;;;;;;;8.00;2.13;;;15.30;99.90;;;;;;5074215;28;20047;-72
2023/08/07 07:07:42;;;;;;;7.50;1.90;;;15.30;99.90;;;;;;5072860;28;20049;-72
2023/08/07 07:10:08;;;;;;;6.18;1.83;;;15.30;99.90;;;;;;5073426;28;20036;-72
2023/08/07 07:12:34;;;;;;;5.78;1.90;;;15.40;99.90;;;;;;5074392;28;20131;-72
2023/08/07 07:15:00;;;;;;;4.07;2.25;;;15.30;99.90;;;;;;5072224;28;20074;-71
2023/08/07 07:17:25;;;;;;;7.10;1.70;;;15.20;99.90;;;;;;5074462;28;20108;-71
2023/08/07 07:19:51;;;;;;;5.70;1.63;;;15.10;99.90;;;;;;5074199;28;20095;-71
2023/08/07 07:22:17;;;;;;;7.50;2.42;;;15.10;99.90;;;;;;5073053;28;20041;-72
2023/08/07 07:24:42;;;;;;;3.67;1.60;;;15.00;99.90;;;;;;5072539;28;20076;-71
2023/08/07 07:27:08;;;;;;;6.75;2.00;;;15.00;99.90;;;;;;5072795;28;20466;-71
2023/08/07 07:29:33;;;;;;;5.68;1.70;;;15.00;99.90;;;;;;5073732;28;20036;-71
2023/08/07 07:31:59;;;;;;;5.43;1.73;;;15.10;99.90;;;;;;5072863;28;20045;-71
2023/08/07 07:34:25;;;;;;;6.32;2.22;;;15.30;99.90;;;;;;5061215;28;20512;-71
2023/08/07 07:36:51;;;;;;;4.75;1.88;;;15.50;99.90;;;;;;5061705;28;20044;-72
2023/08/07 07:39:17;;;;;;;7.15;1.83;;;15.50;99.90;;;;;;5072534;28;20045;-72
2023/08/07 07:41:43;;;;;;;6.28;1.70;;;15.60;99.90;;;;;;5069557;28;20044;-73
2023/08/07 07:44:08;;;;;;;6.65;2.38;;;15.70;99.90;;;;;;5059374;28;20489;-72
2023/08/07 07:46:34;;;;;;;6.53;2.20;;;15.70;99.90;;;;;;5059020;28;20045;-73
2023/08/07 07:49:00;;;;;;;4.30;1.77;;;15.60;99.90;;;;;;5068252;28;20116;-72
2023/08/07 07:51:26;;;;;;;5.88;1.95;;;15.60;99.90;;;;;;5054884;28;20100;-72
2023/08/07 07:53:52;;;;;;;8.27;1.95;;;15.80;99.90;;;;;;5054059;28;20084;-72
2023/08/07 07:56:18;;;;;;;4.63;1.33;;;15.80;99.90;;;;;;5054475;28;20186;-72
2023/08/07 07:58:44;;;;;;;5.20;1.40;;;15.70;99.90;;;;;;5057997;28;20124;-72
2023/08/07 08:01:09;;;;;;;4.22;1.70;;;15.90;99.90;;;;;;5058979;28;20052;-72
2023/08/07 08:03:35;;;;;;;3.85;1.50;;;16.00;99.90;;;;;;5061190;28;20134;-72
2023/08/07 08:06:01;;;;;;;4.20;1.23;;;16.10;99.90;;;;;;5056436;28;20175;-72
2023/08/07 08:08:27;;;;;;;3.65;1.00;;;16.10;99.90;;;;;;5060212;28;20127;-72
2023/08/07 08:10:52;;;;;;;4.30;1.15;;;16.00;99.90;;;;;;5074589;28;20545;-72
2023/08/07 08:13:18;;;;;;;5.72;1.30;;;15.90;99.90;;;;;;5061242;28;20045;-72
2023/08/07 08:15:45;;;;;;;2.40;1.17;;;15.90;99.90;;;;;;5063491;28;20090;-72
2023/08/07 08:18:11;;;;;;;4.43;1.40;;;15.90;99.90;;;;;;5066165;28;20048;-72
2023/08/07 08:20:38;;;;;;;2.38;1.02;;;15.90;99.90;;;;;;5053053;28;20110;-72
2023/08/07 08:23:04;;;;;;;3.38;1.23;;;15.90;99.90;;;;;;5054102;28;20079;-72
2023/08/07 08:25:30;;;;;;;4.47;1.40;;;15.80;99.90;;;;;;5063639;28;20033;-71
2023/08/07 08:27:56;;;;;;;4.32;1.40;;;15.70;99.90;;;;;;5073196;28;20049;-71
2023/08/07 08:30:22;;;;;;;2.75;1.30;;;15.70;99.90;;;;;;5060343;28;20041;-71
2023/08/07 08:32:48;;;;;;;4.95;1.55;;;15.70;99.90;;;;;;5069249;28;20052;-71
2023/08/07 08:35:14;;;;;;;5.00;1.63;;;15.60;99.90;;;;;;5064970;28;20045;-72
2023/08/07 08:37:40;;;;;;;4.93;1.45;;;15.50;99.90;;;;;;5064341;28;20546;-72
2023/08/07 08:40:08;;;;;;;3.55;1.35;;;15.50;99.90;;;;;;5073888;28;20135;-71
2023/08/07 08:42:34;;;;;;;4.30;1.40;;;15.70;99.90;;;;;;5059680;28;20051;-73
2023/08/07 08:45:02;;;;;;;4.25;1.85;;;16.00;99.90;;;;;;5057264;28;20056;-73
2023/08/07 08:47:31;;;;;;;3.95;1.42;;;16.20;99.90;;;;;;5066583;28;20046;-73
2023/08/07 08:50:11;;;;;;;3.35;1.33;;;16.40;99.90;;;;;;5062792;28;20043;-71
2023/08/07 08:52:38;;;;;;;3.78;1.30;;;16.40;99.90;;;;;;5055550;28;20055;-73
2023/08/07 08:55:06;;;;;;;5.57;1.60;;;16.40;99.90;;;;;;5068960;28;20044;-71
2023/08/07 08:57:33;;;;;;;4.25;1.35;;;16.00;99.90;;;;;;5054154;28;20426;-71
2023/08/07 08:59:59;;;;;;;3.90;1.45;;;15.80;99.90;;;;;;5060726;28;20083;-73
2023/08/07 09:02:26;;;;;;;4.72;1.45;;;15.50;99.90;;;;;;5065234;28;20049;-72
2023/08/07 09:04:51;;;;;;;5.50;1.90;;;15.20;99.90;;;;;;5062398;28;20052;-71
2023/08/07 09:07:20;;;;;;;5.45;1.60;;;15.10;99.90;;;;;;5060155;28;20378;-72
2023/08/07 09:09:47;;;;;;;3.67;1.50;;;15.10;99.90;;;;;;5062247;28;20045;-71
2023/08/07 09:12:19;;;;;;;5.63;1.85;;;15.30;99.90;;;;;;5070979;28;20174;-71
2023/08/07 09:14:47;;;;;;;5.18;1.92;;;15.50;99.90;;;;;;5057586;28;20041;-72
2023/08/07 09:17:14;;;;;;;5.07;2.00;;;15.70;99.90;;;;;;5052915;28;20052;-71
2023/08/07 09:19:40;;;;;;;5.95;1.88;;;16.00;99.90;;;;;;5068231;28;20053;-71
2023/08/07 09:22:06;;;;;;;4.05;1.52;;;16.20;99.90;;;;;;5060031;28;20413;-71
2023/08/07 09:24:32;;;;;;;5.18;1.92;;;16.20;99.90;;;;;;5055677;28;20044;-72
2023/08/07 09:26:58;;;;;;;5.07;1.67;;;16.40;99.90;;;;;;5060350;28;20055;-72
2023/08/07 09:29:24;;;;;;;4.43;1.50;;;16.40;99.90;;;;;;5052523;28;20127;-72
2023/08/07 09:31:50;;;;;;;3.88;1.45;;;16.50;99.90;;;;;;5059098;28;20120;-71
2023/08/07 09:34:20;;;;;;;6.85;2.10;;;16.60;99.90;;;;;;5077780;28;20048;-72
2023/08/07 09:36:45;;;;;;;4.75;1.75;;;16.80;99.90;;;;;;5058718;28;20534;-72
2023/08/07 09:39:11;;;;;;;6.15;1.73;;;17.00;99.90;;;;;;5071874;28;20100;-72
2023/08/07 09:41:37;;;;;;;6.20;1.70;;;17.10;99.90;;;;;;5071389;28;20508;-72
2023/08/07 09:44:13;;;;;;;4.30;1.30;;;16.90;99.90;;;;;;5061121;28;20095;-74
2023/08/07 09:46:45;;;;;;;4.63;1.70;;;16.70;99.90;;;;;;5058331;28;20049;-71
2023/08/07 09:49:11;;;;;;;4.28;1.50;;;16.40;99.90;;;;;;5055313;28;20076;-72
2023/08/07 09:51:43;;;;;;;5.05;1.80;;;16.30;99.90;;;;;;5051975;28;20559;-73
2023/08/07 09:54:09;;;;;;;4.10;1.33;;;16.50;99.90;;;;;;5052525;28;20044;-72
2023/08/07 09:56:36;;;;;;;5.32;1.52;;;16.80;99.90;;;;;;5064997;28;20052;-72
2023/08/07 09:59:01;;;;;;;4.05;1.50;;;17.00;99.90;;;;;;5058819;28;20085;-72
2023/08/07 10:01:27;;;;;;;4.05;1.30;;;17.30;99.90;;;;;;5052234;28;20076;-72
2023/08/07 10:03:54;;;;;;;4.85;1.40;;;17.40;99.90;;;;;;5053563;28;20041;-71
2023/08/07 10:06:20;;;;;;;3.58;1.30;;;17.40;99.90;;;;;;5057970;28;20567;-72
2023/08/07 10:08:46;;;;;;;3.47;1.30;;;17.20;99.90;;;;;;5068293;28;20080;-72
2023/08/07 10:11:14;;;;;;;3.00;1.80;;;17.20;99.90;;;;;;5052153;28;20080;-71
2023/08/07 10:13:40;;;;;;;2.65;1.35;;;17.40;99.90;;;;;;5056721;28;20074;-70
2023/08/07 10:16:07;;;;;;;4.80;1.67;;;17.40;99.90;;;;;;5064170;28;20820;-72
2023/08/07 10:18:33;;;;;;;3.28;1.25;;;17.40;99.90;;;;;;5066407;28;20047;-71
2023/08/07 10:21:01;;;;;;;3.03;1.40;;;17.30;99.90;;;;;;5060381;28;20055;-71
2023/08/07 10:23:27;;;;;;;6.63;1.33;;;17.20;99.90;;;;;;5057953;28;20127;-71
2023/08/07 10:25:54;;;;;;;4.63;1.40;;;17.20;99.90;;;;;;5077935;28;20139;-72
2023/08/07 10:28:24;;;;;;;2.90;1.10;;;17.20;99.90;;;;;;5058514;28;20044;-70
2023/08/07 10:30:50;;;;;;;4.63;1.23;;;17.30;99.90;;;;;;5058201;28;20049;-70
2023/08/07 10:33:19;;;;;;;6.00;1.52;;;17.50;99.90;;;;;;5061859;28;20337;-70
2023/08/07 10:35:48;;;;;;;3.88;1.42;;;17.50;99.90;;;;;;5056977;28;20037;-71
2023/08/07 10:38:15;;;;;;;4.60;1.30;;;17.70;99.90;;;;;;5061541;28;20047;-71
2023/08/07 10:41:02;;;;;;;4.18;1.30;;;17.80;99.90;;;;;;5061400;28;20048;-72
2023/08/07 10:43:29;;;;;;;5.70;1.70;;;17.90;99.90;;;;;;5054454;28;20065;-73
2023/08/07 10:46:06;;;;;;;4.15;1.25;;;17.80;99.90;;;;;;5061864;28;20048;-72
2023/08/07 10:48:47;;;;;;;4.18;1.60;;;17.60;99.90;;;;;;5058412;28;20056;-72
2023/08/07 10:51:15;;;;;;;9.73;1.73;;;17.60;99.90;;;;;;5064306;28;20045;-72
2023/08/07 10:53:44;;;;;;;5.45;1.52;;;17.40;99.90;;;;;;5057362;28;20044;-72
2023/08/07 10:56:19;;;;;;;2.85;1.27;;;17.30;99.90;;;;;;5054425;28;20332;-71
2023/08/07 10:58:52;;;;;;;6.03;1.60;;;17.20;99.90;;;;;;5054790;28;20466;-72
2023/08/07 11:01:29;;;;;;;5.20;1.77;;;17.20;99.90;;;;;;5056428;28;20045;-72
2023/08/07 11:03:59;;;;;;;4.50;1.35;;;17.30;99.90;;;;;;5061324;28;20045;-71
2023/08/07 11:06:36;;;;;;;5.20;1.27;;;17.50;99.90;;;;;;5069263;28;20041;-72
2023/08/07 11:09:05;;;;;;;3.22;1.15;;;17.60;99.90;;;;;;5054512;28;20037;-73
2023/08/07 11:11:46;;;;;;;6.05;1.48;;;17.50;99.90;;;;;;5070173;28;20124;-73
2023/08/07 11:14:14;;;;;;;6.93;1.60;;;17.40;99.90;;;;;;5077207;28;20177;-72
2023/08/07 11:16:41;;;;;;;2.28;1.17;;;17.30;99.90;;;;;;5069742;28;20378;-73
2023/08/07 11:19:07;;;;;;;4.95;1.38;;;17.10;99.90;;;;;;5073043;28;20510;-73
2023/08/07 11:21:34;;;;;;;3.67;1.10;;;17.10;99.90;;;;;;5072621;28;20044;-72
2023/08/07 11:24:00;;;;;;;5.47;1.30;;;17.00;99.90;;;;;;5064927;28;20485;-72
2023/08/07 11:26:27;;;;;;;4.35;1.38;;;16.90;99.90;;;;;;5060987;28;20044;-73
2023/08/07 11:28:54;;;;;;;3.65;1.35;;;16.80;99.90;;;;;;5067797;28;20044;-72
2023/08/07 11:31:20;;;;;;;6.95;1.77;;;16.70;99.90;;;;;;5070361;28;20048;-72
2023/08/07 11:33:46;;;;;;;4.88;1.50;;;16.80;99.90;;;;;;5071093;28;20554;-71
2023/08/07 11:36:13;;;;;;;3.85;1.10;;;16.80;99.90;;;;;;5066959;28;20037;-72
2023/08/07 11:38:42;;;;;;;4.72;1.25;;;16.80;99.90;;;;;;5067326;28;20124;-72
2023/08/07 11:41:08;;;;;;;5.13;1.60;;;16.90;99.90;;;;;;5056609;28;20490;-73
2023/08/07 11:43:35;;;;;;;8.15;1.50;;;17.30;99.90;;;;;;5051203;28;20049;-72
2023/08/07 11:46:03;;;;;;;4.95;1.20;;;17.80;99.90;;;;;;5065193;28;20047;-71
2023/08/07 11:48:30;;;;;;;5.13;1.77;;;17.80;99.90;;;;;;5062888;28;20064;-70
2023/08/07 11:50:57;;;;;;;2.70;1.30;;;17.80;99.90;;;;;;5052515;28;20041;-71
2023/08/07 11:53:26;;;;;;;4.18;1.38;;;17.90;99.90;;;;;;5070990;28;20059;-71
2023/08/07 11:56:04;;;;;;;3.03;1.38;;;17.90;99.90;;;;;;5061208;28;20063;-70
2023/08/07 11:58:40;;;;;;;3.13;1.30;;;17.80;99.90;;;;;;5052803;28;20049;-71
2023/08/07 12:01:09;;;;;;;3.60;1.10;;;17.70;99.90;;;;;;5054933;28;20076;-71
2023/08/07 12:03:38;;;;;;;2.72;1.20;;;17.50;99.90;;;;;;5051513;28;20041;-73
2023/08/07 12:06:06;;;;;;;6.70;1.30;;;17.40;99.90;;;;;;5059950;28;20386;-72
2023/08/07 12:08:36;;;;;;;3.25;1.45;;;17.50;99.90;;;;;;5056113;28;20043;-72
2023/08/07 12:11:06;;;;;;;4.05;1.40;;;17.70;99.90;;;;;;5053723;28;20047;-72
2023/08/07 12:13:35;;;;;;;3.17;1.20;;;17.90;99.90;;;;;;5062475;28;20165;-71
2023/08/07 12:16:02;;;;;;;5.15;1.80;;;18.00;99.90;;;;;;5056661;28;20037;-71
2023/08/07 12:18:28;;;;;;;3.30;0.95;;;18.20;99.90;;;;;;5061957;28;20060;-72
2023/08/07 12:20:59;;;;;;;3.97;1.00;;;18.40;99.90;;;;;;5063679;28;20044;-73
2023/08/07 12:23:25;;;;;;;5.07;1.20;;;18.40;99.90;;;;;;5056274;28;20119;-72
2023/08/07 12:25:52;;;;;;;3.28;0.98;;;18.10;99.90;;;;;;5070762;28;20084;-72
2023/08/07 12:28:18;;;;;;;2.42;1.00;;;17.90;99.90;;;;;;5061109;28;20041;-73
2023/08/07 12:30:48;;;;;;;3.80;1.08;;;18.00;99.90;;;;;;5069206;28;20049;-72
2023/08/07 12:33:14;;;;;;;2.95;1.00;;;18.00;99.90;;;;;;5057386;28;20041;-71
2023/08/07 12:35:41;;;;;;;4.00;1.48;;;18.10;99.90;;;;;;5067004;28;20060;-72
2023/08/07 12:38:09;;;;;;;4.05;1.20;;;18.20;99.90;;;;;;5067121;28;20549;-72
2023/08/07 12:40:38;;;;;;;4.72;1.65;;;18.30;99.90;;;;;;5070850;28;20048;-72
2023/08/07 12:43:06;;;;;;;4.70;1.42;;;18.20;99.90;;;;;;5062234;28;20049;-71
2023/08/07 12:45:33;;;;;;;3.17;1.33;;;18.10;99.90;;;;;;5071441;28;20032;-71